Time;durP1;ratioP1;P1;durP2;ratioP2;P2;SDS_P1;SDS_P2;PMS_P1;PMS_P2;Temp;Humidity;BMP_temperature;BMP_pressure;BME280_temperature;BME280_humidity;BME280_pressure;Samples;Min_cycle;Max_cycle;Signal;HPM_P1;HPM_P2
2021/09/02 00:01:36;;;;;;;3.40;3.10;;;;;;;20.91;48.07;98826.61;1701121;82;21146;-52
2021/09/02 00:04:03;;;;;;;3.58;2.52;;;;;;;20.93;47.93;98827.32;1695960;82;21231;-51
2021/09/02 00:06:30;;;;;;;3.75;2.85;;;;;;;20.93;47.99;98831.33;1692917;83;21126;-49
2021/09/02 00:08:57;;;;;;;3.50;2.87;;;;;;;20.91;48.03;98828.82;1688772;82;21217;-50
2021/09/02 00:11:23;;;;;;;6.20;2.55;;;;;;;20.93;47.95;98834.00;1705850;82;21102;-50
2021/09/02 00:13:51;;;;;;;3.95;3.00;;;;;;;20.91;47.93;98834.64;1700962;82;21101;-47
2021/09/02 00:16:19;;;;;;;4.67;2.70;;;;;;;20.88;47.85;98835.77;1664470;83;20992;-48
2021/09/02 00:18:47;;;;;;;2.83;2.62;;;;;;;20.86;47.97;98838.21;1686067;83;21058;-50
2021/09/02 00:21:14;;;;;;;5.45;3.10;;;;;;;20.86;47.95;98839.55;1703350;82;21128;-49
2021/09/02 00:23:40;;;;;;;3.98;3.25;;;;;;;20.84;47.91;98837.51;1713232;81;21152;-49
2021/09/02 00:26:07;;;;;;;4.15;3.05;;;;;;;20.82;47.91;98832.29;1712504;81;21088;-51
2021/09/02 00:28:33;;;;;;;3.25;3.05;;;;;;;20.79;47.97;98837.91;1668446;83;21079;-49
2021/09/02 00:30:59;;;;;;;4.80;3.55;;;;;;;20.81;48.06;98843.12;1685959;83;20988;-51
2021/09/02 00:33:26;;;;;;;3.75;3.27;;;;;;;20.85;48.04;98847.23;1698774;82;21199;-51
2021/09/02 00:35:53;;;;;;;3.35;3.12;;;;;;;20.82;47.95;98842.98;1696941;81;21111;-49
2021/09/02 00:38:19;;;;;;;4.35;3.60;;;;;;;20.83;48.03;98845.16;1693313;82;21098;-52
2021/09/02 00:40:46;;;;;;;4.05;3.20;;;;;;;20.85;48.01;98844.56;1684875;82;21513;-53
2021/09/02 00:43:12;;;;;;;5.20;3.20;;;;;;;20.87;48.04;98838.58;1707838;82;20989;-51
2021/09/02 00:45:39;;;;;;;3.12;2.83;;;;;;;20.90;48.18;98843.66;1688216;83;22308;-51
2021/09/02 00:48:05;;;;;;;4.47;3.08;;;;;;;20.94;48.17;98843.73;1689893;82;21577;-50
2021/09/02 00:50:32;;;;;;;3.27;2.80;;;;;;;20.98;48.06;98838.48;1659691;82;21020;-52
2021/09/02 00:53:00;;;;;;;5.90;3.50;;;;;;;21.01;48.09;98839.52;1698895;81;21917;-50
2021/09/02 00:55:27;;;;;;;3.58;2.98;;;;;;;21.03;47.98;98844.27;1716688;83;21050;-52
2021/09/02 00:57:54;;;;;;;3.30;2.92;;;;;;;20.97;48.01;98844.30;1686923;82;21134;-50
2021/09/02 01:00:20;;;;;;;3.33;3.05;;;;;;;20.96;48.12;98848.45;1712474;83;21051;-51
2021/09/02 01:02:47;;;;;;;6.58;3.20;;;;;;;20.90;48.11;98840.98;1700237;82;21102;-52
2021/09/02 01:05:18;;;;;;;5.75;3.10;;;;;;;20.83;48.22;98851.84;1692953;82;21031;-52
2021/09/02 01:07:45;;;;;;;7.78;2.80;;;;;;;20.77;48.38;98842.05;1704730;83;22252;-52
2021/09/02 01:10:12;;;;;;;3.33;3.00;;;;;;;20.74;48.40;98840.97;1715162;81;21171;-51
2021/09/02 01:12:49;;;;;;;5.87;3.00;;;;;;;20.74;48.45;98844.98;1699882;83;21489;-52
2021/09/02 01:15:20;;;;;;;4.90;2.67;;;;;;;20.74;48.57;98841.47;1698867;83;21508;-52
2021/09/02 01:17:50;;;;;;;5.78;2.90;;;;;;;20.76;48.57;98846.19;1664174;83;21399;-50
2021/09/02 01:20:19;;;;;;;4.45;2.70;;;;;;;20.79;48.64;98847.27;1693204;82;21023;-51
2021/09/02 01:22:46;;;;;;;3.40;3.10;;;;;;;20.82;48.64;98850.17;1678250;83;21776;-52
2021/09/02 01:25:15;;;;;;;8.20;2.87;;;;;;;20.84;48.66;98849.04;1673794;82;21109;-50
2021/09/02 01:27:43;;;;;;;3.15;2.90;;;;;;;20.88;48.66;98855.83;1691801;81;21069;-52
2021/09/02 01:30:13;;;;;;;7.25;3.10;;;;;;;20.87;48.65;98846.59;1702842;81;21040;-52
2021/09/02 01:32:44;;;;;;;3.70;2.98;;;;;;;20.87;48.64;98849.27;1712500;83;21125;-52
2021/09/02 01:35:12;;;;;;;4.30;3.10;;;;;;;20.89;48.70;98851.31;1718034;83;21574;-50
2021/09/02 01:37:47;;;;;;;5.78;2.62;;;;;;;20.91;48.67;98849.34;1667838;83;21088;-51
2021/09/02 01:40:18;;;;;;;5.87;2.90;;;;;;;20.91;48.70;98842.19;1706731;81;21071;-48
2021/09/02 01:42:45;;;;;;;3.37;2.83;;;;;;;20.91;48.70;98843.53;1714320;83;21118;-49
2021/09/02 01:45:11;;;;;;;3.00;2.70;;;;;;;20.92;48.64;98838.52;1696268;82;21143;-48
2021/09/02 01:47:38;;;;;;;2.87;2.60;;;;;;;20.94;48.69;98835.70;1692543;82;21102;-49
2021/09/02 01:50:16;;;;;;;3.75;2.58;;;;;;;20.95;48.73;98831.56;1658992;81;21023;-47
2021/09/02 01:52:44;;;;;;;4.30;3.17;;;;;;;21.01;48.73;98836.84;1720790;81;21042;-49
2021/09/02 01:55:11;;;;;;;5.70;2.75;;;;;;;21.04;48.74;98835.24;1697743;82;21105;-50
2021/09/02 01:57:38;;;;;;;6.28;2.80;;;;;;;21.06;48.71;98830.59;1721160;82;21072;-50
2021/09/02 02:00:07;;;;;;;7.60;3.15;;;;;;;21.07;48.66;98826.95;1706700;82;21050;-48
2021/09/02 02:02:33;;;;;;;6.33;2.80;;;;;;;21.11;48.64;98836.88;1707068;82;21099;-49
2021/09/02 02:05:00;;;;;;;3.00;2.80;;;;;;;21.06;48.81;98830.59;1714605;83;21226;-49
2021/09/02 02:07:26;;;;;;;3.10;2.90;;;;;;;21.07;49.09;98833.64;1701594;82;21055;-49
2021/09/02 02:09:53;;;;;;;5.62;2.70;;;;;;;21.11;49.07;98833.70;1717436;83;20995;-46
2021/09/02 02:12:20;;;;;;;6.80;2.80;;;;;;;21.17;49.10;98837.68;1704728;81;21105;-48
2021/09/02 02:14:46;;;;;;;11.63;2.50;;;;;;;21.23;49.05;98833.59;1700480;82;21038;-57
2021/09/02 02:17:12;;;;;;;9.33;2.67;;;;;;;21.30;49.34;98842.75;1716296;81;20986;-59
2021/09/02 02:19:39;;;;;;;6.28;2.60;;;;;;;21.36;49.25;98836.02;1671073;83;21104;-60
2021/09/02 02:22:06;;;;;;;7.62;2.70;;;;;;;21.42;49.17;98838.16;1702205;81;21092;-57
2021/09/02 02:24:33;;;;;;;7.15;3.05;;;;;;;21.47;49.08;98845.30;1710594;81;21158;-59
2021/09/02 02:26:59;;;;;;;6.05;2.95;;;;;;;21.51;49.00;98840.85;1688839;82;21043;-61
2021/09/02 02:29:26;;;;;;;9.48;2.62;;;;;;;21.56;48.93;98840.94;1692723;83;21130;-64
2021/09/02 02:31:52;;;;;;;7.22;2.65;;;;;;;21.59;48.90;98845.52;1701305;82;21051;-62
2021/09/02 02:34:19;;;;;;;3.95;2.40;;;;;;;21.62;48.87;98840.36;1710162;81;21025;-60
2021/09/02 02:36:46;;;;;;;5.15;2.85;;;;;;;21.66;48.77;98847.98;1708328;82;21135;-53
2021/09/02 02:39:12;;;;;;;2.72;2.50;;;;;;;21.69;48.63;98844.19;1711652;81;21709;-60
2021/09/02 02:41:39;;;;;;;5.50;2.50;;;;;;;21.71;48.56;98844.89;1736038;81;21004;-59
2021/09/02 02:44:05;;;;;;;2.62;2.42;;;;;;;21.74;48.50;98847.29;1738293;81;21016;-48
2021/09/02 02:46:32;;;;;;;5.50;2.62;;;;;;;21.76;48.46;98849.33;1720376;82;21052;-53
2021/09/02 02:49:00;;;;;;;3.92;2.80;;;;;;;21.79;48.44;98845.53;1702807;82;21116;-55
2021/09/02 02:51:26;;;;;;;3.05;2.27;;;;;;;21.80;48.41;98848.05;1712740;81;21192;-57
2021/09/02 02:53:54;;;;;;;3.08;2.87;;;;;;;21.82;48.36;98840.73;1711377;82;21059;-54
2021/09/02 02:56:20;;;;;;;9.98;2.90;;;;;;;21.84;48.35;98837.42;1691383;82;21087;-59
2021/09/02 02:58:48;;;;;;;3.00;2.70;;;;;;;21.86;48.36;98844.81;1696488;82;21569;-61
2021/09/02 03:01:15;;;;;;;2.80;2.60;;;;;;;21.86;48.29;98834.09;1681265;82;22031;-56
2021/09/02 03:03:42;;;;;;;8.95;2.50;;;;;;;21.88;48.30;98836.13;1703256;83;21468;-59
2021/09/02 03:06:10;;;;;;;3.67;2.52;;;;;;;21.91;48.33;98847.58;1672819;83;21003;-58
2021/09/02 03:08:37;;;;;;;4.70;2.70;;;;;;;21.92;48.41;98838.53;1666885;83;20985;-60
2021/09/02 03:11:04;;;;;;;2.47;2.27;;;;;;;21.93;48.45;98844.25;1687938;82;21059;-57
2021/09/02 03:13:32;;;;;;;6.22;2.35;;;;;;;21.95;48.46;98850.31;1711446;83;21012;-58
2021/09/02 03:16:00;;;;;;;2.92;2.50;;;;;;;21.95;48.44;98843.61;1675340;83;21110;-57
2021/09/02 03:18:27;;;;;;;4.62;2.45;;;;;;;21.96;48.41;98846.66;1691706;82;21113;-55
2021/09/02 03:20:55;;;;;;;2.90;2.60;;;;;;;21.97;48.41;98846.98;1710654;83;21210;-56
2021/09/02 03:23:21;;;;;;;3.85;2.47;;;;;;;21.98;48.42;98853.55;1696927;81;21076;-60
2021/09/02 03:25:48;;;;;;;2.70;2.50;;;;;;;21.98;48.39;98852.20;1690583;82;21090;-59
2021/09/02 03:28:14;;;;;;;2.55;2.33;;;;;;;21.99;48.36;98843.19;1692444;82;21030;-58
2021/09/02 03:30:41;;;;;;;2.85;2.65;;;;;;;22.01;48.34;98849.24;1710302;82;21052;-58
2021/09/02 03:33:09;;;;;;;2.80;2.60;;;;;;;22.01;48.32;98845.73;1724102;81;21042;-57
2021/09/02 03:35:35;;;;;;;3.10;2.80;;;;;;;22.04;48.31;98849.44;1705243;83;20984;-55
2021/09/02 03:38:02;;;;;;;2.52;2.30;;;;;;;22.04;48.29;98846.76;1692558;82;21120;-58
2021/09/02 03:40:28;;;;;;;10.50;2.40;;;;;;;22.03;48.25;98845.92;1669047;83;21552;-57
2021/09/02 03:42:55;;;;;;;2.87;2.58;;;;;;;22.04;48.25;98849.44;1700894;82;21539;-55
2021/09/02 03:45:21;;;;;;;3.00;2.60;;;;;;;22.06;48.24;98858.20;1710191;83;21516;-53
2021/09/02 03:47:48;;;;;;;4.50;2.37;;;;;;;22.07;48.24;98858.06;1689331;83;21201;-55
2021/09/02 03:50:19;;;;;;;3.95;2.67;;;;;;;22.07;48.28;98857.20;1699408;82;21081;-56
2021/09/02 03:52:45;;;;;;;2.30;2.17;;;;;;;22.08;48.27;98868.27;1669431;82;21193;-58
2021/09/02 03:55:12;;;;;;;4.28;2.70;;;;;;;22.09;48.29;98861.94;1688402;83;21091;-57
2021/09/02 03:57:40;;;;;;;2.75;2.55;;;;;;;22.10;48.30;98860.09;1676258;84;21100;-59
2021/09/02 04:00:09;;;;;;;24.02;2.72;;;;;;;22.11;48.29;98862.64;1720245;81;21169;-59
2021/09/02 04:02:36;;;;;;;3.40;2.37;;;;;;;22.13;48.26;98868.69;1749913;81;21814;-55
2021/09/02 04:05:04;;;;;;;5.35;2.80;;;;;;;22.13;48.27;98871.37;1731351;81;20901;-54
2021/09/02 04:07:31;;;;;;;5.30;2.62;;;;;;;22.14;48.29;98870.39;1700504;82;21123;-56
2021/09/02 04:09:58;;;;;;;3.20;2.90;;;;;;;22.16;48.26;98881.80;1718656;82;21082;-55
2021/09/02 04:12:24;;;;;;;5.40;2.85;;;;;;;22.15;48.26;98884.12;1655050;83;21103;-55
2021/09/02 04:14:52;;;;;;;6.95;2.55;;;;;;;22.18;48.23;98889.70;1695699;82;21842;-52
2021/09/02 04:17:19;;;;;;;2.90;2.70;;;;;;;22.17;48.24;98884.81;1683447;83;21220;-56
2021/09/02 04:19:46;;;;;;;2.85;2.45;;;;;;;22.19;48.19;98884.20;1706463;81;21114;-55
2021/09/02 04:22:12;;;;;;;3.15;2.95;;;;;;;22.20;48.21;98889.89;1691351;82;21043;-54
2021/09/02 04:24:41;;;;;;;2.80;2.55;;;;;;;22.21;48.20;98886.24;1700622;83;20964;-59
2021/09/02 04:27:10;;;;;;;7.15;2.37;;;;;;;22.20;48.19;98892.58;1673005;83;21839;-58
2021/09/02 04:29:35;;;;;;;2.77;2.35;;;;;;;22.22;48.13;98896.45;1711210;83;21520;-57
2021/09/02 04:32:02;;;;;;;3.17;2.75;;;;;;;22.22;48.16;98887.91;1707501;81;20968;-57
2021/09/02 04:34:30;;;;;;;3.12;2.58;;;;;;;22.23;48.15;98886.94;1667009;83;21083;-57
2021/09/02 04:36:56;;;;;;;2.80;2.52;;;;;;;22.24;48.10;98889.98;1716582;81;21071;-55
2021/09/02 04:39:23;;;;;;;2.83;2.60;;;;;;;22.23;48.15;98885.59;1721304;81;21792;-53
2021/09/02 04:41:50;;;;;;;4.30;2.52;;;;;;;22.25;48.16;98887.63;1706522;82;21049;-52
2021/09/02 04:44:17;;;;;;;3.05;2.60;;;;;;;22.26;48.16;98889.33;1714536;81;21095;-57
2021/09/02 04:46:43;;;;;;;2.77;2.55;;;;;;;22.28;48.09;98879.84;1659526;83;21197;-56
2021/09/02 04:49:10;;;;;;;3.42;2.52;;;;;;;22.29;48.06;98882.86;1695059;82;21074;-56
2021/09/02 04:51:37;;;;;;;3.40;2.65;;;;;;;22.31;48.00;98884.05;1696664;82;21122;-57
2021/09/02 04:54:05;;;;;;;3.98;2.37;;;;;;;22.31;47.94;98882.72;1724993;82;21018;-58
2021/09/02 04:56:31;;;;;;;2.72;2.50;;;;;;;22.33;47.91;98887.47;1699751;82;20991;-58
2021/09/02 04:58:58;;;;;;;2.70;2.37;;;;;;;22.33;47.85;98899.02;1708380;82;21050;-56
2021/09/02 05:01:25;;;;;;;4.90;3.00;;;;;;;22.34;47.85;98901.20;1670669;83;21299;-50
2021/09/02 05:03:51;;;;;;;2.70;2.50;;;;;;;22.35;47.83;98900.22;1689519;82;21138;-57
2021/09/02 05:06:19;;;;;;;2.95;2.75;;;;;;;22.35;47.82;98901.05;1698947;82;21092;-54
2021/09/02 05:08:45;;;;;;;5.03;2.87;;;;;;;22.36;47.82;98896.53;1713073;81;21170;-55
2021/09/02 05:11:13;;;;;;;5.22;2.70;;;;;;;22.36;47.90;98899.21;1727906;81;21089;-51
2021/09/02 05:13:40;;;;;;;3.33;2.60;;;;;;;22.37;48.01;98908.45;1697063;81;21522;-52
2021/09/02 05:16:06;;;;;;;5.00;2.80;;;;;;;22.36;48.03;98891.17;1726018;81;21043;-49
2021/09/02 05:18:34;;;;;;;5.72;2.90;;;;;;;22.36;47.98;98894.72;1707730;82;21661;-50
2021/09/02 05:21:02;;;;;;;8.53;2.37;;;;;;;22.35;48.05;98890.33;1690946;82;21521;-53
2021/09/02 05:23:29;;;;;;;3.62;2.40;;;;;;;22.36;48.11;98884.47;1685137;83;21612;-54
2021/09/02 05:25:55;;;;;;;3.55;2.83;;;;;;;22.36;48.04;98884.00;1684935;83;21500;-54
2021/09/02 05:28:21;;;;;;;5.72;2.70;;;;;;;22.37;48.04;98883.49;1668131;83;21028;-53
2021/09/02 05:30:48;;;;;;;3.35;2.60;;;;;;;22.38;48.08;98879.84;1705382;83;21422;-52
2021/09/02 05:33:14;;;;;;;3.30;2.85;;;;;;;22.38;48.06;98883.35;1692730;83;21566;-49
2021/09/02 05:35:40;;;;;;;5.20;2.33;;;;;;;22.41;48.04;98888.43;1703937;82;20991;-50
2021/09/02 05:38:12;;;;;;;6.05;2.70;;;;;;;22.43;47.98;98899.01;1672238;84;21042;-52
2021/09/02 05:40:38;;;;;;;9.95;2.60;;;;;;;22.45;48.09;98892.50;1710313;81;21124;-51
2021/09/02 05:43:05;;;;;;;5.05;2.77;;;;;;;22.46;47.33;98893.36;1698274;81;21038;-51
2021/09/02 05:45:31;;;;;;;7.65;2.60;;;;;;;22.48;46.92;98890.04;1674921;82;21058;-53
2021/09/02 05:47:57;;;;;;;4.65;2.80;;;;;;;22.48;46.88;98886.02;1667952;83;21129;-52
2021/09/02 05:50:27;;;;;;;4.12;3.00;;;;;;;22.50;46.88;98884.53;1701027;81;21107;-54
2021/09/02 05:52:55;;;;;;;6.12;3.17;;;;;;;22.50;46.96;98888.05;1704665;81;21177;-54
2021/09/02 05:55:21;;;;;;;7.95;3.42;;;;;;;22.53;47.28;98895.81;1699448;81;21441;-52
2021/09/02 05:57:47;;;;;;;8.65;3.83;;;;;;;22.54;47.57;98896.14;1698881;81;21002;-49
2021/09/02 06:00:15;;;;;;;6.55;4.00;;;;;;;22.55;47.14;98895.16;1706004;82;22019;-47
2021/09/02 06:02:42;;;;;;;5.78;2.87;;;;;;;22.48;45.59;98902.10;1715637;81;21508;-50
2021/09/02 06:05:09;;;;;;;4.62;3.00;;;;;;;22.33;44.27;98911.58;1703659;82;21830;-49
2021/09/02 06:07:36;;;;;;;4.53;2.80;;;;;;;22.19;44.15;98905.64;1625552;86;21126;-49
2021/09/02 06:10:04;;;;;;;4.80;3.10;;;;;;;22.13;43.92;98917.42;1639244;83;21092;-49
2021/09/02 06:12:33;;;;;;;8.40;2.90;;;;;;;22.05;43.68;98908.73;1730083;81;21130;-45
2021/09/02 06:14:59;;;;;;;5.12;2.50;;;;;;;21.97;42.90;98905.91;1699471;82;21068;-45
2021/09/02 06:17:25;;;;;;;8.85;2.83;;;;;;;21.86;43.28;98918.96;1699327;81;21164;-44
2021/09/02 06:19:52;;;;;;;6.28;2.75;;;;;;;21.73;43.05;98921.06;1694544;82;21007;-44
2021/09/02 06:22:19;;;;;;;5.83;2.77;;;;;;;21.61;43.01;98927.03;1684097;82;20985;-45
2021/09/02 06:24:45;;;;;;;5.05;2.70;;;;;;;21.49;42.76;98939.18;1710310;81;21009;-43
2021/09/02 06:27:11;;;;;;;3.95;2.90;;;;;;;21.33;42.27;98937.48;1715437;82;21062;-44
2021/09/02 06:29:38;;;;;;;7.00;2.70;;;;;;;21.18;42.63;98941.52;1699944;82;21126;-44
2021/09/02 06:32:05;;;;;;;3.95;2.85;;;;;;;21.03;42.15;98947.23;1707790;81;21072;-44
2021/09/02 06:34:32;;;;;;;4.58;2.50;;;;;;;20.86;41.77;98935.30;1688294;82;21128;-44
2021/09/02 06:36:58;;;;;;;6.10;2.67;;;;;;;20.65;41.84;98941.19;1677305;83;21068;-44
2021/09/02 06:39:26;;;;;;;10.68;3.30;;;;;;;20.49;41.77;98945.11;1708696;82;21009;-43
2021/09/02 06:41:53;;;;;;;13.30;3.55;;;;;;;20.39;43.64;98947.74;1686250;81;21055;-45
2021/09/02 06:44:19;;;;;;;14.70;3.42;;;;;;;20.38;45.17;98947.38;1705296;81;20998;-43
2021/09/02 06:46:46;;;;;;;21.10;3.83;;;;;;;20.44;45.96;98955.84;1682292;81;22138;-44
2021/09/02 06:49:13;;;;;;;17.17;3.47;;;;;;;20.53;46.04;98959.09;1691711;81;21623;-45
2021/09/02 06:51:41;;;;;;;15.78;3.00;;;;;;;20.64;45.41;98948.84;1683033;81;21916;-46
2021/09/02 06:54:09;;;;;;;13.20;3.00;;;;;;;20.76;44.84;98943.30;1689611;82;20925;-45
2021/09/02 06:56:37;;;;;;;9.80;2.83;;;;;;;20.88;44.22;98950.75;1690344;81;21074;-45
2021/09/02 06:59:04;;;;;;;12.35;2.47;;;;;;;20.97;43.38;98947.77;1689329;82;21112;-47
2021/09/02 07:01:30;;;;;;;6.55;2.70;;;;;;;21.02;42.66;98952.22;1702493;81;21054;-47
2021/09/02 07:03:56;;;;;;;9.73;2.30;;;;;;;21.08;41.64;98971.75;1680983;83;21205;-48
2021/09/02 07:06:24;;;;;;;5.80;2.87;;;;;;;21.09;40.02;98960.05;1693800;81;21113;-48
2021/09/02 07:08:50;;;;;;;4.37;2.02;;;;;;;21.08;40.33;98958.38;1688174;82;21062;-46
2021/09/02 07:11:18;;;;;;;8.10;2.05;;;;;;;21.12;39.40;98958.45;1688476;82;21282;-48
2021/09/02 07:13:47;;;;;;;7.65;2.15;;;;;;;21.17;38.85;98971.94;1700027;82;21089;-45
2021/09/02 07:16:13;;;;;;;9.25;2.35;;;;;;;21.19;37.78;98973.98;1670201;81;21009;-44
2021/09/02 07:18:40;;;;;;;3.37;2.15;;;;;;;21.19;37.02;98987.36;1702271;82;22196;-46
2021/09/02 07:21:06;;;;;;;9.03;2.12;;;;;;;21.15;36.40;98974.74;1710034;82;21656;-46
2021/09/02 07:23:33;;;;;;;3.77;1.80;;;;;;;21.13;35.99;98974.00;1688224;82;22056;-46
2021/09/02 07:26:00;;;;;;;5.45;1.80;;;;;;;21.03;35.56;98965.96;1682591;82;21056;-49
2021/09/02 07:28:26;;;;;;;4.65;1.90;;;;;;;20.97;35.01;98974.50;1698716;82;21054;-47
2021/09/02 07:30:53;;;;;;;3.62;1.42;;;;;;;20.88;34.33;98957.44;1665867;82;21054;-48
2021/09/02 07:33:19;;;;;;;9.33;1.67;;;;;;;20.73;34.59;98964.95;1662468;81;21098;-49
2021/09/02 07:35:46;;;;;;;6.83;2.00;;;;;;;20.55;34.75;98967.32;1689609;81;21139;-50
2021/09/02 07:38:12;;;;;;;7.55;2.20;;;;;;;20.35;34.98;98965.49;1681059;82;21078;-46
2021/09/02 07:40:39;;;;;;;4.85;2.20;;;;;;;20.17;36.11;98975.42;1680518;82;21098;-48
2021/09/02 07:43:05;;;;;;;3.87;1.52;;;;;;;20.13;36.51;98994.48;1670118;83;21103;-49
2021/09/02 07:45:33;;;;;;;6.92;1.90;;;;;;;20.09;35.78;98972.99;1681611;82;21539;-49
2021/09/02 07:47:59;;;;;;;10.65;2.00;;;;;;;19.95;35.47;98966.97;1661857;83;21727;-48
2021/09/02 07:50:26;;;;;;;9.90;2.02;;;;;;;19.83;35.92;98975.50;1678382;82;21621;-51
2021/09/02 07:52:52;;;;;;;7.53;1.85;;;;;;;19.79;36.90;98974.56;1683957;82;21621;-49
2021/09/02 07:55:19;;;;;;;5.75;2.35;;;;;;;19.79;36.23;98988.75;1625447;84;21809;-48
2021/09/02 07:57:48;;;;;;;6.08;2.20;;;;;;;19.75;36.51;98979.27;1637044;84;21451;-49
2021/09/02 08:00:17;;;;;;;3.00;1.65;;;;;;;19.75;36.54;98973.94;1685197;82;21010;-46
2021/09/02 08:02:43;;;;;;;6.15;1.90;;;;;;;19.79;36.46;98977.23;1649058;84;22046;-50
2021/09/02 08:05:10;;;;;;;5.20;1.87;;;;;;;19.85;36.55;98972.70;1682718;82;21169;-47
2021/09/02 08:07:49;;;;;;;5.42;1.82;;;;;;;19.91;36.40;98968.20;1651765;82;21175;-47
2021/09/02 08:10:20;;;;;;;4.33;2.40;;;;;;;19.94;36.32;98979.98;1682889;81;21007;-49
2021/09/02 08:12:48;;;;;;;4.12;2.33;;;;;;;19.96;36.02;98983.86;1686330;82;21204;-47
2021/09/02 08:15:16;;;;;;;6.97;2.00;;;;;;;19.96;36.15;98979.86;1690850;81;21109;-47
2021/09/02 08:17:44;;;;;;;4.20;2.27;;;;;;;19.96;36.39;98971.34;1683218;81;21086;-47
2021/09/02 08:20:11;;;;;;;5.33;2.02;;;;;;;20.02;36.81;98970.85;1689503;81;21121;-49
2021/09/02 08:22:39;;;;;;;8.63;1.95;;;;;;;20.15;37.16;98973.83;1674670;82;21167;-49
2021/09/02 08:25:07;;;;;;;6.45;1.75;;;;;;;20.31;37.18;98959.56;1678323;82;21063;-49
2021/09/02 08:27:34;;;;;;;8.93;1.75;;;;;;;20.46;37.47;98953.88;1683408;82;22000;-48
2021/09/02 08:30:00;;;;;;;5.08;1.50;;;;;;;20.62;37.66;98954.28;1684538;81;20979;-47
2021/09/02 08:32:27;;;;;;;4.50;1.75;;;;;;;20.77;37.57;98959.67;1685642;82;21548;-47
2021/09/02 08:34:54;;;;;;;5.97;1.67;;;;;;;20.91;37.70;98958.98;1701998;81;21481;-49
2021/09/02 08:37:20;;;;;;;8.75;1.77;;;;;;;21.04;37.74;98964.13;1681165;82;21030;-49
2021/09/02 08:39:48;;;;;;;3.62;1.42;;;;;;;21.16;37.45;98961.70;1656705;84;22101;-49
2021/09/02 08:42:15;;;;;;;4.15;1.90;;;;;;;21.26;37.70;98967.10;1644501;84;22010;-50
2021/09/02 08:44:43;;;;;;;2.50;1.60;;;;;;;21.35;37.80;98962.30;1666247;83;21066;-48
2021/09/02 08:47:10;;;;;;;4.10;1.65;;;;;;;21.44;37.86;98954.77;1657794;83;21059;-46
2021/09/02 08:49:37;;;;;;;2.55;1.75;;;;;;;21.54;37.65;98946.81;1685576;82;21170;-50
2021/09/02 08:52:04;;;;;;;8.25;2.10;;;;;;;21.64;37.70;98949.02;1673043;82;21010;-48
2021/09/02 08:54:33;;;;;;;3.83;1.90;;;;;;;21.71;36.78;98956.84;1647734;84;21027;-49
2021/09/02 08:57:00;;;;;;;7.05;1.87;;;;;;;21.75;35.81;98957.91;1696882;81;22280;-47
2021/09/02 08:59:26;;;;;;;10.08;1.65;;;;;;;21.64;34.20;98957.55;1693589;81;21053;-46
2021/09/02 09:01:53;;;;;;;3.10;1.75;;;;;;;21.45;34.41;98963.17;1689438;81;22067;-48
2021/09/02 09:04:19;;;;;;;13.10;2.25;;;;;;;21.26;34.46;98958.58;1694432;81;21819;-49
2021/09/02 09:06:46;;;;;;;5.62;2.02;;;;;;;21.07;35.69;98956.67;1686633;81;21965;-47
2021/09/02 09:09:14;;;;;;;9.10;2.10;;;;;;;20.96;34.96;98959.42;1640679;83;22212;-50
2021/09/02 09:11:49;;;;;;;13.35;1.95;;;;;;;20.84;35.55;98959.16;1694445;81;21070;-48
2021/09/02 09:14:26;;;;;;;6.10;2.00;;;;;;;20.77;36.04;98964.19;1685958;82;21001;-49
2021/09/02 09:16:56;;;;;;;7.35;2.70;;;;;;;20.66;35.98;98958.44;1692767;81;21526;-48
2021/09/02 09:19:53;;;;;;;5.78;3.00;;;;;;;20.62;36.88;98968.98;1701464;81;21110;-42
2021/09/02 09:22:22;;;;;;;6.42;2.30;;;;;;;20.60;36.90;98965.59;1743718;75;21209;-42
2021/09/02 09:24:54;;;;;;;3.42;2.10;;;;;;;20.58;36.36;98951.03;1720380;81;21082;-46
2021/09/02 09:27:28;;;;;;;4.42;1.82;;;;;;;20.61;37.63;98959.29;1709758;81;21994;-46
2021/09/02 09:30:20;;;;;;;8.60;2.00;;;;;;;20.69;36.73;98954.14;1701737;81;22145;-46
2021/09/02 09:33:03;;;;;;;7.40;2.00;;;;;;;20.74;36.42;98958.60;1678394;82;21112;-48
2021/09/02 09:35:35;;;;;;;3.52;1.27;;;;;;;20.75;35.10;98962.98;1708311;81;21892;-46
2021/09/02 09:38:16;;;;;;;11.70;1.70;;;;;;;20.71;34.65;98986.95;1684182;81;21053;-46
2021/09/02 09:40:50;;;;;;;15.60;1.75;;;;;;;20.67;33.68;98976.65;1719470;80;21052;-46
2021/09/02 09:43:24;;;;;;;5.35;1.22;;;;;;;20.56;33.27;98969.03;1688697;81;21059;-47
2021/09/02 09:45:54;;;;;;;1.60;1.12;;;;;;;20.46;33.18;98966.78;1701722;81;22067;-47
2021/09/02 09:48:33;;;;;;;5.47;1.40;;;;;;;20.42;33.38;98998.72;1718840;80;21021;-46
2021/09/02 09:51:17;;;;;;;10.28;1.30;;;;;;;20.41;33.28;98979.18;1731484;80;21027;-47
2021/09/02 09:53:52;;;;;;;7.50;1.50;;;;;;;20.43;32.87;98992.42;1728338;80;29111;-47
2021/09/02 09:56:23;;;;;;;3.22;1.62;;;;;;;20.43;32.74;98978.22;1734428;80;21004;-47
2021/09/02 09:58:53;;;;;;;3.05;1.55;;;;;;;20.44;32.95;98995.92;1722221;80;21015;-46
2021/09/02 10:01:19;;;;;;;5.22;1.60;;;;;;;20.48;32.60;98984.02;1732895;80;22284;-47
2021/09/02 10:03:50;;;;;;;5.03;1.30;;;;;;;20.48;32.63;98986.69;1740312;79;21027;-45
2021/09/02 10:06:14;;;;;;;3.00;1.15;;;;;;;20.44;32.40;99003.95;1683028;81;21037;-45
2021/09/02 10:08:43;;;;;;;2.35;1.20;;;;;;;20.37;32.75;98991.09;1659251;83;20998;-46
2021/09/02 10:11:13;;;;;;;4.92;1.45;;;;;;;20.37;32.80;98993.76;1671541;82;21071;-45
2021/09/02 10:13:42;;;;;;;5.37;1.42;;;;;;;20.37;32.08;98995.59;1704898;81;22308;-45
2021/09/02 10:16:08;;;;;;;3.77;1.65;;;;;;;20.33;32.03;98991.00;1706546;81;21034;-48
2021/09/02 10:18:39;;;;;;;4.45;1.47;;;;;;;20.33;32.28;98986.99;1723499;80;21044;-46
2021/09/02 10:21:07;;;;;;;7.55;1.85;;;;;;;20.35;32.64;98999.73;1694539;81;21067;-44
2021/09/02 10:23:33;;;;;;;2.72;1.70;;;;;;;20.38;32.18;98995.97;1716518;81;21128;-45
2021/09/02 10:26:02;;;;;;;4.42;1.87;;;;;;;20.37;32.25;98999.10;1719523;81;21936;-46
2021/09/02 10:28:36;;;;;;;2.77;1.72;;;;;;;20.36;32.46;99001.94;1708987;81;21068;-45
2021/09/02 10:31:06;;;;;;;4.05;1.50;;;;;;;20.28;31.98;99005.23;1713710;81;21151;-45
2021/09/02 10:33:40;;;;;;;4.30;1.20;;;;;;;20.16;32.23;99027.63;1734866;80;21050;-45
2021/09/02 10:36:21;;;;;;;3.00;1.32;;;;;;;20.01;32.03;99025.22;1731402;80;21150;-46
2021/09/02 10:38:58;;;;;;;4.85;1.60;;;;;;;19.80;32.37;99030.50;1738408;78;21751;-47
2021/09/02 10:41:36;;;;;;;9.10;1.75;;;;;;;19.60;33.14;99030.73;1735278;79;21103;-46
2021/09/02 10:44:04;;;;;;;6.70;1.50;;;;;;;19.51;33.31;99047.45;1708344;80;20998;-46
2021/09/02 10:46:43;;;;;;;7.12;1.50;;;;;;;19.48;34.09;99040.56;1734089;80;21019;-45
2021/09/02 10:49:35;;;;;;;2.75;1.60;;;;;;;19.46;33.62;99042.97;1685182;81;22011;-44
2021/09/02 10:52:02;;;;;;;2.17;1.77;;;;;;;19.49;34.05;99035.56;1669722;83;21150;-45
2021/09/02 10:54:36;;;;;;;7.67;1.60;;;;;;;19.54;35.34;99026.37;1729618;80;21099;-45
2021/09/02 10:57:13;;;;;;;5.17;1.85;;;;;;;19.55;35.65;99046.26;1702931;81;22112;-45
2021/09/02 10:59:53;;;;;;;3.98;1.62;;;;;;;19.54;35.78;99043.22;1715193;81;21145;-44
2021/09/02 11:02:25;;;;;;;4.25;1.42;;;;;;;19.51;35.77;99032.78;1706232;81;21084;-44
2021/09/02 11:05:06;;;;;;;8.73;1.67;;;;;;;19.51;33.37;99052.80;1672068;82;21142;-45
2021/09/02 11:07:46;;;;;;;5.42;1.67;;;;;;;19.40;31.64;99051.45;1744048;80;20997;-46
2021/09/02 11:10:23;;;;;;;2.80;1.50;;;;;;;19.26;32.58;99068.55;1734361;80;21062;-46
2021/09/02 11:13:05;;;;;;;2.77;1.50;;;;;;;19.24;33.09;99065.98;1723380;80;21011;-45
2021/09/02 11:15:35;;;;;;;2.08;1.42;;;;;;;19.26;32.83;99065.38;1725139;80;22407;-46
2021/09/02 11:18:03;;;;;;;6.75;1.67;;;;;;;19.29;31.97;99062.48;1733749;80;21545;-44
2021/09/02 11:20:31;;;;;;;5.42;1.47;;;;;;;19.28;31.69;99058.59;1735674;80;21921;-44
2021/09/02 11:23:12;;;;;;;1.80;1.50;;;;;;;19.27;31.32;99083.09;1721213;80;21594;-47
2021/09/02 11:25:44;;;;;;;5.08;1.50;;;;;;;19.26;31.38;99053.38;1721531;79;21073;-46
2021/09/02 11:28:11;;;;;;;5.33;1.70;;;;;;;19.27;31.37;99064.92;1730560;80;20987;-45
2021/09/02 11:30:38;;;;;;;6.95;2.95;;;;;;;19.28;31.45;99070.13;1704181;81;20994;-45
2021/09/02 11:33:06;;;;;;;5.17;1.62;;;;;;;19.33;31.70;99062.25;1729085;80;21020;-44
2021/09/02 11:35:35;;;;;;;6.15;1.42;;;;;;;19.42;31.91;99066.38;1731312;80;21048;-46
2021/09/02 11:38:01;;;;;;;3.98;1.87;;;;;;;19.52;32.00;99061.17;1733824;80;21095;-45